Airfield :
LOGIN :

Register | Disclaimer

   EN    FR    IT 

 










Legend :    VFR   Marginal VFR   IFR   Intensive IFR   Very Intensive IFR
Visi :
Ceiling :
>= 8 km
>= 3000ft
5 to 8 km
1000 to 3000 ft
1500m to 5 km
500 to 1000 ft
800 to 1500m
200 to 500 ft
< 800m
< 200 ft
Symbols :   Thunderstorms  Fog  Heavy snow  Heavy precipitations  Wind > 20 kt
SIGMETs :     Misc.  Thunderstorms  Icing  Turbulence  Mountain Waves  Volcanic Ashes






- Airport Elevation : 404 ft
- IATA code : WRO


EPWR - Wroclaw

CURRENT METAR :
  • 111730Z 07005KT 040V100 CAVOK 27/17 Q1018

EXPIRED METARs :
  • 111700Z 06008KT CAVOK 27/16 Q1018
  • 111630Z 03006KT 340V050 9999 FEW063TCU 29/14 Q1018
  • 111600Z 04005KT 350V070 CAVOK 29/12 Q1018
  • 111530Z 05006KT 350V070 CAVOK 29/13 Q1018
  • 111500Z 04006KT 010V070 CAVOK 29/15 Q1018

TAF TAF EPWR
Valid from the 11 at 18:00 until the 12 at 18:00 UTC


111730Z 1118/1218 06008KT CAVOK



MET'MAP, your aeronautical weather chart ! - Copyright ORBIFLY December 2007 - Disclaimer

ORBIFLY MET'MAP TEAM :

Programming & Development : Alexandra Zaïnal
Concept & original design : Baudouin d'Aumeries
Assistance for programming : Marc-Olivier Méhu
Technical & hardware support : Manuel Goepfert

Contact : metmap@orbifly.com




SOURCES & CREDITS :

   NOAA